Skip Navigation Links Skip Navigation Links

Current Weather

Fort Yukon, Alaska

For information only: do not use for flight planning or navigation.
Latest weather
Observation time Tuesday, October 26, 2021 11:16 PM AKDT
Local time Tuesday, October 26, 2021 11:31 PM AKDT
Flight conditions Marginal Visual Meteorological Conditions
Winds
Wind speed calm
Visibility 3 mi.
Present weather light snow, mist
Sky condition
Ceiling 2,000 ft. broken clouds
Cloud layer broken clouds 2,000 ft.
Cloud layer broken clouds 2,900 ft.
Cloud layer overcast 4,500 ft.
Temperature 25°F
Dewpoint 25°F
Altimeter 29.42 in.Hg
Derived measurements
Relative humidity 100%
Wind chill 25°F
Density altitude -1253 ft.
Remarks
Special weather observation.
Fully automated report.
METAR SPAK31 KWBC 270719 SPECI PFYU 270716Z AUTO 00000KT 3SM -SN BR BKN020 BKN029 OVC045 M04/M04 A2942

Settings

Location code

InnerDrive.Weather 4.0.6770.0 Release CLR 4.0.30319.42000
Copyright ©2018 Inner Drive Technology. All rights reserved. Portions Copyright ©1986-2018 David Braverman.

Find weather

Site navigation


Skip Navigation Links

Place info

Page info

PayPal - The safer, easier way to pay online!

Return home.

Copyright ©2021 Inner Drive Technology. Purveyors of fine, hand-crafted computer software. Page printed 2021-10-27T07:31:43 UTC.